sensor_id;sensor_type;location;lat;lon;timestamp;pressure;altitude;pressure_sealevel;temperature
63689;BMP280;54895;40.928;14.480;2024-03-06T00:00:15;101463.22;;;22.77
63689;BMP280;54895;40.928;14.480;2024-03-06T00:02:41;101461.47;;;22.60
63689;BMP280;54895;40.928;14.480;2024-03-06T00:05:07;101457.06;;;22.97
63689;BMP280;54895;40.928;14.480;2024-03-06T00:07:34;101456.13;;;21.81
63689;BMP280;54895;40.928;14.480;2024-03-06T00:10:00;101469.94;;;21.85
63689;BMP280;54895;40.928;14.480;2024-03-06T00:12:26;101464.56;;;22.66
63689;BMP280;54895;40.928;14.480;2024-03-06T00:14:52;101453.88;;;21.49
63689;BMP280;54895;40.928;14.480;2024-03-06T00:17:19;101459.22;;;22.27
63689;BMP280;54895;40.928;14.480;2024-03-06T00:19:45;101453.38;;;22.30
63689;BMP280;54895;40.928;14.480;2024-03-06T00:22:11;101459.34;;;22.28
63689;BMP280;54895;40.928;14.480;2024-03-06T00:24:37;101457.28;;;21.78
63689;BMP280;54895;40.928;14.480;2024-03-06T00:27:04;101451.88;;;21.40
63689;BMP280;54895;40.928;14.480;2024-03-06T00:29:30;101459.03;;;22.04
63689;BMP280;54895;40.928;14.480;2024-03-06T00:31:57;101467.50;;;22.49
63689;BMP280;54895;40.928;14.480;2024-03-06T00:34:23;101467.94;;;22.76
63689;BMP280;54895;40.928;14.480;2024-03-06T00:36:49;101468.09;;;22.48
63689;BMP280;54895;40.928;14.480;2024-03-06T00:39:16;101463.59;;;23.04
63689;BMP280;54895;40.928;14.480;2024-03-06T00:41:42;101463.56;;;21.61
63689;BMP280;54895;40.928;14.480;2024-03-06T00:44:08;101478.91;;;22.99
63689;BMP280;54895;40.928;14.480;2024-03-06T00:46:35;101476.81;;;22.46
63689;BMP280;54895;40.928;14.480;2024-03-06T00:49:01;101466.22;;;22.50
63689;BMP280;54895;40.928;14.480;2024-03-06T00:51:27;101466.53;;;21.56
63689;BMP280;54895;40.928;14.480;2024-03-06T00:53:53;101460.88;;;22.11
63689;BMP280;54895;40.928;14.480;2024-03-06T00:56:19;101465.66;;;21.63
63689;BMP280;54895;40.928;14.480;2024-03-06T00:58:46;101462.28;;;21.34
63689;BMP280;54895;40.928;14.480;2024-03-06T01:01:14;101456.78;;;20.22
63689;BMP280;54895;40.928;14.480;2024-03-06T01:03:41;101453.13;;;20.82
63689;BMP280;54895;40.928;14.480;2024-03-06T01:06:07;101451.59;;;21.17
63689;BMP280;54895;40.928;14.480;2024-03-06T01:08:33;101446.72;;;20.77
63689;BMP280;54895;40.928;14.480;2024-03-06T01:10:59;101448.59;;;21.13
63689;BMP280;54895;40.928;14.480;2024-03-06T01:13:26;101450.84;;;21.64
63689;BMP280;54895;40.928;14.480;2024-03-06T01:15:52;101450.88;;;20.88
63689;BMP280;54895;40.928;14.480;2024-03-06T01:18:18;101451.91;;;21.21
63689;BMP280;54895;40.928;14.480;2024-03-06T01:20:44;101455.31;;;21.02
63689;BMP280;54895;40.928;14.480;2024-03-06T01:23:11;101460.69;;;20.74
63689;BMP280;54895;40.928;14.480;2024-03-06T01:25:37;101456.03;;;20.48
63689;BMP280;54895;40.928;14.480;2024-03-06T01:28:04;101450.16;;;20.33
63689;BMP280;54895;40.928;14.480;2024-03-06T01:30:30;101440.78;;;20.07
63689;BMP280;54895;40.928;14.480;2024-03-06T01:32:57;101447.88;;;20.39
63689;BMP280;54895;40.928;14.480;2024-03-06T01:35:23;101445.19;;;20.39
63689;BMP280;54895;40.928;14.480;2024-03-06T01:37:50;101445.59;;;20.71
63689;BMP280;54895;40.928;14.480;2024-03-06T01:40:16;101440.06;;;21.45
63689;BMP280;54895;40.928;14.480;2024-03-06T01:42:43;101440.63;;;20.05
63689;BMP280;54895;40.928;14.480;2024-03-06T01:45:09;101426.69;;;21.09
63689;BMP280;54895;40.928;14.480;2024-03-06T01:47:36;101428.97;;;21.03
63689;BMP280;54895;40.928;14.480;2024-03-06T01:50:04;101430.50;;;20.32
63689;BMP280;54895;40.928;14.480;2024-03-06T01:52:36;101431.81;;;21.24
63689;BMP280;54895;40.928;14.480;2024-03-06T01:55:03;101414.81;;;20.76
63689;BMP280;54895;40.928;14.480;2024-03-06T01:57:30;101422.50;;;22.05
63689;BMP280;54895;40.928;14.480;2024-03-06T01:59:57;101418.00;;;21.39
63689;BMP280;54895;40.928;14.480;2024-03-06T02:02:23;101415.97;;;21.49
63689;BMP280;54895;40.928;14.480;2024-03-06T02:04:53;101416.25;;;21.53
63689;BMP280;54895;40.928;14.480;2024-03-06T02:07:20;101420.81;;;20.84
63689;BMP280;54895;40.928;14.480;2024-03-06T02:09:47;101414.16;;;21.04
63689;BMP280;54895;40.928;14.480;2024-03-06T02:12:14;101418.56;;;21.09
63689;BMP280;54895;40.928;14.480;2024-03-06T02:14:42;101423.53;;;21.03
63689;BMP280;54895;40.928;14.480;2024-03-06T02:17:09;101420.00;;;20.91
63689;BMP280;54895;40.928;14.480;2024-03-06T02:19:42;101416.97;;;20.77
63689;BMP280;54895;40.928;14.480;2024-03-06T02:22:10;101423.19;;;20.61
63689;BMP280;54895;40.928;14.480;2024-03-06T02:24:37;101432.38;;;21.41
63689;BMP280;54895;40.928;14.480;2024-03-06T02:27:04;101431.53;;;21.29
63689;BMP280;54895;40.928;14.480;2024-03-06T02:29:32;101425.19;;;20.61
63689;BMP280;54895;40.928;14.480;2024-03-06T02:31:59;101419.03;;;20.15
63689;BMP280;54895;40.928;14.480;2024-03-06T02:34:28;101426.63;;;22.06
63689;BMP280;54895;40.928;14.480;2024-03-06T02:36:56;101423.28;;;22.26
63689;BMP280;54895;40.928;14.480;2024-03-06T02:39:23;101419.09;;;23.30
63689;BMP280;54895;40.928;14.480;2024-03-06T02:41:49;101416.91;;;20.49
63689;BMP280;54895;40.928;14.480;2024-03-06T02:44:15;101419.91;;;21.76
63689;BMP280;54895;40.928;14.480;2024-03-06T02:46:47;101410.22;;;21.64
63689;BMP280;54895;40.928;14.480;2024-03-06T02:49:16;101413.22;;;21.68
63689;BMP280;54895;40.928;14.480;2024-03-06T02:51:42;101414.56;;;22.69
63689;BMP280;54895;40.928;14.480;2024-03-06T02:54:09;101409.97;;;20.65
63689;BMP280;54895;40.928;14.480;2024-03-06T02:56:35;101400.13;;;21.45
63689;BMP280;54895;40.928;14.480;2024-03-06T02:59:01;101398.06;;;20.32
63689;BMP280;54895;40.928;14.480;2024-03-06T03:01:29;101399.28;;;20.67
63689;BMP280;54895;40.928;14.480;2024-03-06T03:03:56;101395.03;;;20.64
63689;BMP280;54895;40.928;14.480;2024-03-06T03:06:22;101390.22;;;20.17
63689;BMP280;54895;40.928;14.480;2024-03-06T03:08:52;101367.00;;;19.78
63689;BMP280;54895;40.928;14.480;2024-03-06T03:11:18;101372.44;;;20.24
63689;BMP280;54895;40.928;14.480;2024-03-06T03:13:44;101389.38;;;22.78
63689;BMP280;54895;40.928;14.480;2024-03-06T03:16:18;101381.28;;;20.43
63689;BMP280;54895;40.928;14.480;2024-03-06T03:18:45;101383.81;;;21.15
63689;BMP280;54895;40.928;14.480;2024-03-06T03:21:11;101380.25;;;21.71
63689;BMP280;54895;40.928;14.480;2024-03-06T03:23:39;101378.03;;;19.73
63689;BMP280;54895;40.928;14.480;2024-03-06T03:26:07;101389.22;;;20.22
63689;BMP280;54895;40.928;14.480;2024-03-06T03:28:33;101387.94;;;20.78
63689;BMP280;54895;40.928;14.480;2024-03-06T03:30:59;101390.13;;;19.98
63689;BMP280;54895;40.928;14.480;2024-03-06T03:33:25;101391.75;;;21.91
63689;BMP280;54895;40.928;14.480;2024-03-06T03:35:52;101385.50;;;21.20
63689;BMP280;54895;40.928;14.480;2024-03-06T03:38:18;101385.09;;;20.21
63689;BMP280;54895;40.928;14.480;2024-03-06T03:40:44;101363.09;;;19.45
63689;BMP280;54895;40.928;14.480;2024-03-06T03:43:10;101371.41;;;20.19
63689;BMP280;54895;40.928;14.480;2024-03-06T03:45:37;101364.94;;;19.26
63689;BMP280;54895;40.928;14.480;2024-03-06T03:48:04;101369.69;;;19.35
63689;BMP280;54895;40.928;14.480;2024-03-06T03:50:31;101364.78;;;20.30
63689;BMP280;54895;40.928;14.480;2024-03-06T03:52:57;101362.94;;;20.42
63689;BMP280;54895;40.928;14.480;2024-03-06T03:55:24;101367.97;;;21.80
63689;BMP280;54895;40.928;14.480;2024-03-06T03:57:51;101382.28;;;22.52
63689;BMP280;54895;40.928;14.480;2024-03-06T04:00:18;101372.88;;;21.72
63689;BMP280;54895;40.928;14.480;2024-03-06T04:02:45;101358.94;;;21.96
63689;BMP280;54895;40.928;14.480;2024-03-06T04:05:12;101357.28;;;21.42
63689;BMP280;54895;40.928;14.480;2024-03-06T04:07:38;101366.09;;;21.82
63689;BMP280;54895;40.928;14.480;2024-03-06T04:10:06;101366.00;;;22.31
63689;BMP280;54895;40.928;14.480;2024-03-06T04:12:32;101369.06;;;22.26
63689;BMP280;54895;40.928;14.480;2024-03-06T04:14:58;101380.63;;;21.96
63689;BMP280;54895;40.928;14.480;2024-03-06T04:17:25;101378.69;;;22.08
63689;BMP280;54895;40.928;14.480;2024-03-06T04:19:51;101378.66;;;21.38
63689;BMP280;54895;40.928;14.480;2024-03-06T04:22:19;101377.22;;;21.37
63689;BMP280;54895;40.928;14.480;2024-03-06T04:24:45;101378.44;;;22.34
63689;BMP280;54895;40.928;14.480;2024-03-06T04:27:12;101389.38;;;22.36
63689;BMP280;54895;40.928;14.480;2024-03-06T04:29:38;101385.72;;;21.62
63689;BMP280;54895;40.928;14.480;2024-03-06T04:32:04;101391.81;;;22.32
63689;BMP280;54895;40.928;14.480;2024-03-06T04:34:31;101378.19;;;20.37
63689;BMP280;54895;40.928;14.480;2024-03-06T04:36:57;101377.69;;;20.95
63689;BMP280;54895;40.928;14.480;2024-03-06T04:39:24;101384.78;;;21.10
63689;BMP280;54895;40.928;14.480;2024-03-06T04:41:51;101371.03;;;20.32
63689;BMP280;54895;40.928;14.480;2024-03-06T04:44:17;101365.47;;;19.58
63689;BMP280;54895;40.928;14.480;2024-03-06T04:46:43;101366.44;;;20.99
63689;BMP280;54895;40.928;14.480;2024-03-06T04:49:09;101380.59;;;21.66
63689;BMP280;54895;40.928;14.480;2024-03-06T04:51:35;101381.66;;;21.32
63689;BMP280;54895;40.928;14.480;2024-03-06T04:54:02;101391.69;;;21.70
63689;BMP280;54895;40.928;14.480;2024-03-06T04:56:29;101394.53;;;22.12
63689;BMP280;54895;40.928;14.480;2024-03-06T04:58:55;101369.00;;;22.89
63689;BMP280;54895;40.928;14.480;2024-03-06T05:01:21;101382.06;;;21.48
63689;BMP280;54895;40.928;14.480;2024-03-06T05:03:48;101385.38;;;21.77
63689;BMP280;54895;40.928;14.480;2024-03-06T05:06:15;101381.69;;;22.12
63689;BMP280;54895;40.928;14.480;2024-03-06T05:08:41;101391.91;;;21.93
63689;BMP280;54895;40.928;14.480;2024-03-06T05:11:08;101379.13;;;22.05
63689;BMP280;54895;40.928;14.480;2024-03-06T05:13:34;101375.88;;;20.43
63689;BMP280;54895;40.928;14.480;2024-03-06T05:16:00;101371.66;;;20.04
63689;BMP280;54895;40.928;14.480;2024-03-06T05:18:26;101386.34;;;21.91
63689;BMP280;54895;40.928;14.480;2024-03-06T05:20:52;101404.16;;;23.19
63689;BMP280;54895;40.928;14.480;2024-03-06T05:23:20;101397.59;;;22.27
63689;BMP280;54895;40.928;14.480;2024-03-06T05:25:47;101403.59;;;21.08
63689;BMP280;54895;40.928;14.480;2024-03-06T05:28:13;101418.97;;;22.74
63689;BMP280;54895;40.928;14.480;2024-03-06T05:30:39;101415.22;;;22.37
63689;BMP280;54895;40.928;14.480;2024-03-06T05:33:05;101407.19;;;22.19
63689;BMP280;54895;40.928;14.480;2024-03-06T05:35:32;101403.72;;;21.38
63689;BMP280;54895;40.928;14.480;2024-03-06T05:37:58;101426.63;;;21.66
63689;BMP280;54895;40.928;14.480;2024-03-06T05:40:24;101427.34;;;22.06
63689;BMP280;54895;40.928;14.480;2024-03-06T05:42:50;101434.50;;;21.05
63689;BMP280;54895;40.928;14.480;2024-03-06T05:45:17;101444.56;;;21.80
63689;BMP280;54895;40.928;14.480;2024-03-06T05:47:43;101439.19;;;22.11
63689;BMP280;54895;40.928;14.480;2024-03-06T05:50:10;101439.16;;;21.71
63689;BMP280;54895;40.928;14.480;2024-03-06T05:52:36;101447.91;;;21.50
63689;BMP280;54895;40.928;14.480;2024-03-06T05:55:03;101447.69;;;22.17
63689;BMP280;54895;40.928;14.480;2024-03-06T05:57:32;101450.63;;;22.00
63689;BMP280;54895;40.928;14.480;2024-03-06T05:59:58;101447.00;;;22.88
63689;BMP280;54895;40.928;14.480;2024-03-06T06:02:24;101452.72;;;21.71
63689;BMP280;54895;40.928;14.480;2024-03-06T06:04:50;101458.47;;;22.35
63689;BMP280;54895;40.928;14.480;2024-03-06T06:07:17;101451.00;;;22.15
63689;BMP280;54895;40.928;14.480;2024-03-06T06:09:43;101449.66;;;21.86
63689;BMP280;54895;40.928;14.480;2024-03-06T06:12:09;101465.47;;;22.59
63689;BMP280;54895;40.928;14.480;2024-03-06T06:14:36;101464.25;;;21.81
63689;BMP280;54895;40.928;14.480;2024-03-06T06:17:02;101456.41;;;21.85
63689;BMP280;54895;40.928;14.480;2024-03-06T06:19:29;101465.41;;;22.18
63689;BMP280;54895;40.928;14.480;2024-03-06T06:21:55;101460.25;;;22.22
63689;BMP280;54895;40.928;14.480;2024-03-06T06:24:21;101460.00;;;21.02
63689;BMP280;54895;40.928;14.480;2024-03-06T06:26:48;101464.34;;;21.83
63689;BMP280;54895;40.928;14.480;2024-03-06T06:29:15;101451.97;;;22.20
63689;BMP280;54895;40.928;14.480;2024-03-06T06:31:41;101477.44;;;22.35
63689;BMP280;54895;40.928;14.480;2024-03-06T06:34:07;101475.16;;;22.32
63689;BMP280;54895;40.928;14.480;2024-03-06T06:36:34;101463.88;;;22.35
63689;BMP280;54895;40.928;14.480;2024-03-06T06:39:00;101478.66;;;22.95
63689;BMP280;54895;40.928;14.480;2024-03-06T06:41:26;101480.59;;;22.62
63689;BMP280;54895;40.928;14.480;2024-03-06T06:43:52;101487.00;;;22.67
63689;BMP280;54895;40.928;14.480;2024-03-06T06:46:19;101494.06;;;22.81
63689;BMP280;54895;40.928;14.480;2024-03-06T06:48:45;101487.78;;;21.50
63689;BMP280;54895;40.928;14.480;2024-03-06T06:51:11;101481.22;;;21.53
63689;BMP280;54895;40.928;14.480;2024-03-06T06:53:39;101479.13;;;21.23
63689;BMP280;54895;40.928;14.480;2024-03-06T06:56:07;101480.50;;;21.71
63689;BMP280;54895;40.928;14.480;2024-03-06T06:58:34;101484.50;;;22.20
63689;BMP280;54895;40.928;14.480;2024-03-06T07:01:00;101491.16;;;22.28
63689;BMP280;54895;40.928;14.480;2024-03-06T07:03:26;101496.44;;;23.40
63689;BMP280;54895;40.928;14.480;2024-03-06T07:05:56;101499.75;;;22.25
63689;BMP280;54895;40.928;14.480;2024-03-06T07:08:23;101501.13;;;22.65
63689;BMP280;54895;40.928;14.480;2024-03-06T07:10:50;101494.63;;;23.01
63689;BMP280;54895;40.928;14.480;2024-03-06T07:13:16;101508.97;;;23.13
63689;BMP280;54895;40.928;14.480;2024-03-06T07:15:43;101505.94;;;23.62
63689;BMP280;54895;40.928;14.480;2024-03-06T07:18:10;101503.22;;;23.18
63689;BMP280;54895;40.928;14.480;2024-03-06T07:20:36;101489.66;;;22.97
63689;BMP280;54895;40.928;14.480;2024-03-06T07:23:02;101489.91;;;21.51
63689;BMP280;54895;40.928;14.480;2024-03-06T07:25:28;101499.63;;;21.54
63689;BMP280;54895;40.928;14.480;2024-03-06T07:27:54;101511.84;;;21.84
63689;BMP280;54895;40.928;14.480;2024-03-06T07:30:21;101521.88;;;23.56
63689;BMP280;54895;40.928;14.480;2024-03-06T07:32:48;101516.59;;;23.58
63689;BMP280;54895;40.928;14.480;2024-03-06T07:35:14;101529.06;;;24.76
63689;BMP280;54895;40.928;14.480;2024-03-06T07:37:41;101504.72;;;23.86
63689;BMP280;54895;40.928;14.480;2024-03-06T07:40:10;101516.00;;;24.86
63689;BMP280;54895;40.928;14.480;2024-03-06T07:42:37;101505.91;;;24.06
63689;BMP280;54895;40.928;14.480;2024-03-06T07:45:05;101496.34;;;23.17
63689;BMP280;54895;40.928;14.480;2024-03-06T07:47:35;101525.13;;;23.75
63689;BMP280;54895;40.928;14.480;2024-03-06T07:50:01;101530.25;;;23.92
63689;BMP280;54895;40.928;14.480;2024-03-06T07:52:28;101507.06;;;22.73
63689;BMP280;54895;40.928;14.480;2024-03-06T07:54:54;101525.41;;;25.08
63689;BMP280;54895;40.928;14.480;2024-03-06T07:57:20;101532.88;;;24.48
63689;BMP280;54895;40.928;14.480;2024-03-06T07:59:47;101547.97;;;25.71
63689;BMP280;54895;40.928;14.480;2024-03-06T08:02:14;101544.78;;;25.13
63689;BMP280;54895;40.928;14.480;2024-03-06T08:04:40;101531.53;;;24.72
63689;BMP280;54895;40.928;14.480;2024-03-06T08:07:06;101536.03;;;25.03
63689;BMP280;54895;40.928;14.480;2024-03-06T08:09:33;101539.19;;;26.40
63689;BMP280;54895;40.928;14.480;2024-03-06T08:11:59;101548.00;;;26.12
63689;BMP280;54895;40.928;14.480;2024-03-06T08:14:25;101544.31;;;27.47
63689;BMP280;54895;40.928;14.480;2024-03-06T08:16:51;101540.97;;;22.93
63689;BMP280;54895;40.928;14.480;2024-03-06T08:19:18;101525.06;;;22.99
63689;BMP280;54895;40.928;14.480;2024-03-06T08:21:44;101546.50;;;25.70
63689;BMP280;54895;40.928;14.480;2024-03-06T08:24:10;101547.03;;;25.80
63689;BMP280;54895;40.928;14.480;2024-03-06T08:26:37;101545.06;;;25.56
63689;BMP280;54895;40.928;14.480;2024-03-06T08:29:03;101545.13;;;25.44
63689;BMP280;54895;40.928;14.480;2024-03-06T08:31:30;101529.72;;;22.87
63689;BMP280;54895;40.928;14.480;2024-03-06T08:33:57;101534.41;;;25.73
63689;BMP280;54895;40.928;14.480;2024-03-06T08:36:23;101547.31;;;27.53
63689;BMP280;54895;40.928;14.480;2024-03-06T08:38:50;101561.72;;;26.54
63689;BMP280;54895;40.928;14.480;2024-03-06T08:41:17;101545.63;;;21.83
63689;BMP280;54895;40.928;14.480;2024-03-06T08:43:43;101573.38;;;25.37
63689;BMP280;54895;40.928;14.480;2024-03-06T08:46:10;101568.88;;;25.30
63689;BMP280;54895;40.928;14.480;2024-03-06T08:48:36;101573.84;;;24.98
63689;BMP280;54895;40.928;14.480;2024-03-06T08:51:03;101549.59;;;22.80
63689;BMP280;54895;40.928;14.480;2024-03-06T08:53:37;101540.63;;;22.99
63689;BMP280;54895;40.928;14.480;2024-03-06T08:56:04;101549.78;;;24.12
63689;BMP280;54895;40.928;14.480;2024-03-06T08:58:31;101534.13;;;22.31
63689;BMP280;54895;40.928;14.480;2024-03-06T09:00:57;101541.63;;;24.12
63689;BMP280;54895;40.928;14.480;2024-03-06T09:03:24;101544.19;;;22.50
63689;BMP280;54895;40.928;14.480;2024-03-06T09:05:51;101539.44;;;22.50
63689;BMP280;54895;40.928;14.480;2024-03-06T09:08:17;101550.53;;;23.15
63689;BMP280;54895;40.928;14.480;2024-03-06T09:10:44;101553.53;;;21.69
63689;BMP280;54895;40.928;14.480;2024-03-06T09:13:11;101569.75;;;21.41
63689;BMP280;54895;40.928;14.480;2024-03-06T09:15:37;101575.41;;;20.18
63689;BMP280;54895;40.928;14.480;2024-03-06T09:18:04;101557.03;;;21.15
63689;BMP280;54895;40.928;14.480;2024-03-06T09:20:30;101556.34;;;22.49
63689;BMP280;54895;40.928;14.480;2024-03-06T09:22:57;101559.66;;;22.68
63689;BMP280;54895;40.928;14.480;2024-03-06T09:25:24;101560.72;;;22.54
63689;BMP280;54895;40.928;14.480;2024-03-06T09:27:50;101563.94;;;23.55
63689;BMP280;54895;40.928;14.480;2024-03-06T09:30:16;101572.19;;;21.75
63689;BMP280;54895;40.928;14.480;2024-03-06T09:32:43;101576.75;;;24.65
63689;BMP280;54895;40.928;14.480;2024-03-06T09:35:10;101573.34;;;22.40
63689;BMP280;54895;40.928;14.480;2024-03-06T09:37:36;101587.47;;;24.98
63689;BMP280;54895;40.928;14.480;2024-03-06T09:40:02;101599.75;;;23.63
63689;BMP280;54895;40.928;14.480;2024-03-06T09:42:29;101591.59;;;23.63
63689;BMP280;54895;40.928;14.480;2024-03-06T09:44:55;101587.84;;;23.36
63689;BMP280;54895;40.928;14.480;2024-03-06T09:47:22;101582.47;;;23.26
63689;BMP280;54895;40.928;14.480;2024-03-06T09:49:51;101586.31;;;21.73
63689;BMP280;54895;40.928;14.480;2024-03-06T09:52:23;101605.13;;;22.58
63689;BMP280;54895;40.928;14.480;2024-03-06T09:54:54;101597.03;;;22.79
63689;BMP280;54895;40.928;14.480;2024-03-06T09:57:20;101600.09;;;22.25
63689;BMP280;54895;40.928;14.480;2024-03-06T09:59:47;101615.50;;;22.62
63689;BMP280;54895;40.928;14.480;2024-03-06T10:02:30;101614.50;;;22.97
63689;BMP280;54895;40.928;14.480;2024-03-06T10:04:59;101617.13;;;23.16
63689;BMP280;54895;40.928;14.480;2024-03-06T10:07:25;101622.31;;;22.82
63689;BMP280;54895;40.928;14.480;2024-03-06T10:09:53;101618.91;;;22.72
63689;BMP280;54895;40.928;14.480;2024-03-06T10:12:20;101636.63;;;23.66
63689;BMP280;54895;40.928;14.480;2024-03-06T10:14:51;101626.03;;;22.77
63689;BMP280;54895;40.928;14.480;2024-03-06T10:17:21;101615.50;;;21.56
63689;BMP280;54895;40.928;14.480;2024-03-06T10:19:53;101615.50;;;22.71
63689;BMP280;54895;40.928;14.480;2024-03-06T10:22:19;101596.06;;;22.75
63689;BMP280;54895;40.928;14.480;2024-03-06T10:24:46;101629.53;;;24.37
63689;BMP280;54895;40.928;14.480;2024-03-06T10:27:16;101632.47;;;24.30
63689;BMP280;54895;40.928;14.480;2024-03-06T10:29:45;101623.59;;;23.53
63689;BMP280;54895;40.928;14.480;2024-03-06T10:32:16;101618.13;;;23.74
63689;BMP280;54895;40.928;14.480;2024-03-06T10:34:45;101591.38;;;22.17
63689;BMP280;54895;40.928;14.480;2024-03-06T10:37:11;101590.00;;;21.97
63689;BMP280;54895;40.928;14.480;2024-03-06T10:39:42;101591.16;;;21.46
63689;BMP280;54895;40.928;14.480;2024-03-06T10:42:12;101595.53;;;22.18
63689;BMP280;54895;40.928;14.480;2024-03-06T10:44:49;101622.94;;;23.64
63689;BMP280;54895;40.928;14.480;2024-03-06T10:47:18;101613.75;;;22.45
63689;BMP280;54895;40.928;14.480;2024-03-06T10:49:45;101610.63;;;22.21
63689;BMP280;54895;40.928;14.480;2024-03-06T10:52:13;101630.94;;;23.62
63689;BMP280;54895;40.928;14.480;2024-03-06T10:54:44;101640.53;;;23.21
63689;BMP280;54895;40.928;14.480;2024-03-06T10:57:13;101616.47;;;23.48
63689;BMP280;54895;40.928;14.480;2024-03-06T10:59:40;101623.66;;;21.46
63689;BMP280;54895;40.928;14.480;2024-03-06T11:02:09;101601.38;;;21.67
63689;BMP280;54895;40.928;14.480;2024-03-06T11:04:37;101607.78;;;22.37
63689;BMP280;54895;40.928;14.480;2024-03-06T11:07:06;101620.66;;;21.42
63689;BMP280;54895;40.928;14.480;2024-03-06T11:09:34;101630.47;;;21.57
63689;BMP280;54895;40.928;14.480;2024-03-06T11:12:01;101634.38;;;21.92
63689;BMP280;54895;40.928;14.480;2024-03-06T11:14:31;101652.22;;;23.03
63689;BMP280;54895;40.928;14.480;2024-03-06T11:16:58;101644.84;;;21.31
63689;BMP280;54895;40.928;14.480;2024-03-06T11:19:28;101625.63;;;21.55
63689;BMP280;54895;40.928;14.480;2024-03-06T11:21:55;101632.06;;;21.79
63689;BMP280;54895;40.928;14.480;2024-03-06T11:24:34;101633.53;;;21.15
63689;BMP280;54895;40.928;14.480;2024-03-06T11:27:01;101636.59;;;21.67
63689;BMP280;54895;40.928;14.480;2024-03-06T11:29:29;101642.59;;;21.94
63689;BMP280;54895;40.928;14.480;2024-03-06T11:32:17;101642.78;;;21.96
63689;BMP280;54895;40.928;14.480;2024-03-06T11:34:44;101641.44;;;22.25
63689;BMP280;54895;40.928;14.480;2024-03-06T11:37:10;101630.47;;;21.57
63689;BMP280;54895;40.928;14.480;2024-03-06T11:39:38;101643.16;;;21.64
63689;BMP280;54895;40.928;14.480;2024-03-06T11:42:05;101648.03;;;22.13
63689;BMP280;54895;40.928;14.480;2024-03-06T11:44:35;101647.28;;;22.31
63689;BMP280;54895;40.928;14.480;2024-03-06T11:47:04;101632.56;;;22.93
63689;BMP280;54895;40.928;14.480;2024-03-06T11:49:31;101658.44;;;22.84
63689;BMP280;54895;40.928;14.480;2024-03-06T11:52:09;101663.38;;;25.39
63689;BMP280;54895;40.928;14.480;2024-03-06T11:54:36;101659.59;;;22.81
63689;BMP280;54895;40.928;14.480;2024-03-06T11:57:05;101644.03;;;25.10
63689;BMP280;54895;40.928;14.480;2024-03-06T11:59:34;101647.97;;;25.08
63689;BMP280;54895;40.928;14.480;2024-03-06T12:02:03;101659.94;;;24.57
63689;BMP280;54895;40.928;14.480;2024-03-06T12:04:35;101624.97;;;23.43
63689;BMP280;54895;40.928;14.480;2024-03-06T12:07:05;101629.31;;;22.75
63689;BMP280;54895;40.928;14.480;2024-03-06T12:09:37;101630.94;;;22.99
63689;BMP280;54895;40.928;14.480;2024-03-06T12:12:04;101644.47;;;21.91
63689;BMP280;54895;40.928;14.480;2024-03-06T12:14:35;101636.19;;;21.70
63689;BMP280;54895;40.928;14.480;2024-03-06T12:17:02;101641.59;;;21.42
63689;BMP280;54895;40.928;14.480;2024-03-06T12:19:33;101655.19;;;21.99
63689;BMP280;54895;40.928;14.480;2024-03-06T12:22:00;101649.94;;;23.30
63689;BMP280;54895;40.928;14.480;2024-03-06T12:24:27;101648.00;;;22.31
63689;BMP280;54895;40.928;14.480;2024-03-06T12:27:01;101645.97;;;24.28
63689;BMP280;54895;40.928;14.480;2024-03-06T12:29:30;101632.53;;;23.65
63689;BMP280;54895;40.928;14.480;2024-03-06T12:32:01;101633.31;;;22.25
63689;BMP280;54895;40.928;14.480;2024-03-06T12:34:29;101629.50;;;22.68
63689;BMP280;54895;40.928;14.480;2024-03-06T12:37:08;101632.66;;;23.46
63689;BMP280;54895;40.928;14.480;2024-03-06T12:39:37;101634.03;;;21.31
63689;BMP280;54895;40.928;14.480;2024-03-06T12:42:04;101630.28;;;21.36
63689;BMP280;54895;40.928;14.480;2024-03-06T12:44:30;101621.94;;;23.80
63689;BMP280;54895;40.928;14.480;2024-03-06T12:46:57;101620.22;;;23.43
63689;BMP280;54895;40.928;14.480;2024-03-06T12:49:24;101617.25;;;21.80
63689;BMP280;54895;40.928;14.480;2024-03-06T12:51:50;101617.63;;;24.10
63689;BMP280;54895;40.928;14.480;2024-03-06T12:54:19;101612.59;;;23.09
63689;BMP280;54895;40.928;14.480;2024-03-06T12:56:46;101607.28;;;21.08
63689;BMP280;54895;40.928;14.480;2024-03-06T12:59:13;101639.72;;;21.35
63689;BMP280;54895;40.928;14.480;2024-03-06T13:01:39;101605.88;;;21.07
63689;BMP280;54895;40.928;14.480;2024-03-06T13:04:06;101608.09;;;22.13
63689;BMP280;54895;40.928;14.480;2024-03-06T13:06:34;101607.53;;;20.67
63689;BMP280;54895;40.928;14.480;2024-03-06T13:09:00;101606.81;;;22.94
63689;BMP280;54895;40.928;14.480;2024-03-06T13:11:27;101602.63;;;23.65
63689;BMP280;54895;40.928;14.480;2024-03-06T13:13:53;101624.50;;;22.15
63689;BMP280;54895;40.928;14.480;2024-03-06T13:16:20;101613.47;;;21.28
63689;BMP280;54895;40.928;14.480;2024-03-06T13:18:48;101595.81;;;22.22
63689;BMP280;54895;40.928;14.480;2024-03-06T13:21:15;101616.06;;;21.64
63689;BMP280;54895;40.928;14.480;2024-03-06T13:23:42;101614.78;;;21.46
63689;BMP280;54895;40.928;14.480;2024-03-06T13:26:08;101593.50;;;21.14
63689;BMP280;54895;40.928;14.480;2024-03-06T13:28:36;101610.50;;;20.62
63689;BMP280;54895;40.928;14.480;2024-03-06T13:31:03;101605.59;;;20.24
63689;BMP280;54895;40.928;14.480;2024-03-06T13:33:31;101605.91;;;20.28
63689;BMP280;54895;40.928;14.480;2024-03-06T13:35:58;101614.81;;;20.48
63689;BMP280;54895;40.928;14.480;2024-03-06T13:38:25;101616.03;;;21.26
63689;BMP280;54895;40.928;14.480;2024-03-06T13:40:51;101599.91;;;23.23
63689;BMP280;54895;40.928;14.480;2024-03-06T13:43:18;101616.66;;;21.53